Aaron, Kentucky
Current Conditions -  °F | °C
As of 7:29 PM on Sunday 23 Nov 2014 (Local Time) from KEKQ Reporting Station
Broken Clouds Broken Clouds  
Wind Chill: 17°   Ceiling: 8000
Heat Index: 17°   Visibility: 10mi
Dew Point: 13°   Wind: 22mph
Humidity: 77%   Direction: 180°S
Pressure: 29.48"   Gusts: 39mph
Location:  36.6815°N, 85.1287°W
Report Text: KEKQ 240129Z AUTO 18019G34KT 10SM SCT023 BKN080 17/13 A2948 RMK AO2 BKN V SCT PK WND 18035/0115
Loading
Personal Weather Stations






























Interactive Weather Map New forecast layout! Learn more

10-Day Weather Forecast

Advertisements
Track Severe Weather on mobile